sensor_id;sensor_type;location;lat;lon;timestamp;P1;durP1;ratioP1;P2;durP2;ratioP2
51862;SDS011;37900;52.996;6.278;2023-07-13T00:00:03;4.25;;;1.90;;
51862;SDS011;37900;52.996;6.278;2023-07-13T00:02:34;2.80;;;1.85;;
51862;SDS011;37900;52.996;6.278;2023-07-13T00:05:00;2.53;;;1.80;;
51862;SDS011;37900;52.996;6.278;2023-07-13T00:07:26;2.53;;;1.77;;
51862;SDS011;37900;52.996;6.278;2023-07-13T00:09:51;3.08;;;1.98;;
51862;SDS011;37900;52.996;6.278;2023-07-13T00:12:27;3.63;;;1.95;;
51862;SDS011;37900;52.996;6.278;2023-07-13T00:14:56;3.10;;;1.63;;
51862;SDS011;37900;52.996;6.278;2023-07-13T00:17:23;2.38;;;1.65;;
51862;SDS011;37900;52.996;6.278;2023-07-13T00:19:49;2.65;;;1.70;;
51862;SDS011;37900;52.996;6.278;2023-07-13T00:22:15;2.30;;;1.85;;
51862;SDS011;37900;52.996;6.278;2023-07-13T00:24:42;2.35;;;1.60;;
51862;SDS011;37900;52.996;6.278;2023-07-13T00:27:11;3.13;;;1.55;;
51862;SDS011;37900;52.996;6.278;2023-07-13T00:29:37;2.17;;;1.50;;
51862;SDS011;37900;52.996;6.278;2023-07-13T00:32:03;2.88;;;1.60;;
51862;SDS011;37900;52.996;6.278;2023-07-13T00:34:30;2.58;;;1.48;;
51862;SDS011;37900;52.996;6.278;2023-07-13T00:36:56;3.17;;;1.88;;
51862;SDS011;37900;52.996;6.278;2023-07-13T00:39:22;2.17;;;1.60;;
51862;SDS011;37900;52.996;6.278;2023-07-13T00:41:48;3.53;;;1.98;;
51862;SDS011;37900;52.996;6.278;2023-07-13T00:44:14;2.28;;;1.85;;
51862;SDS011;37900;52.996;6.278;2023-07-13T00:46:41;1.83;;;1.40;;
51862;SDS011;37900;52.996;6.278;2023-07-13T00:49:07;2.38;;;1.52;;
51862;SDS011;37900;52.996;6.278;2023-07-13T00:54:17;2.57;;;1.60;;
51862;SDS011;37900;52.996;6.278;2023-07-13T00:56:47;2.45;;;1.50;;
51862;SDS011;37900;52.996;6.278;2023-07-13T00:59:15;2.67;;;1.80;;
51862;SDS011;37900;52.996;6.278;2023-07-13T01:01:44;1.75;;;1.60;;
51862;SDS011;37900;52.996;6.278;2023-07-13T01:04:09;2.28;;;1.55;;
51862;SDS011;37900;52.996;6.278;2023-07-13T01:06:36;1.60;;;1.40;;
51862;SDS011;37900;52.996;6.278;2023-07-13T01:09:03;2.92;;;1.80;;
51862;SDS011;37900;52.996;6.278;2023-07-13T01:11:31;2.38;;;1.60;;
51862;SDS011;37900;52.996;6.278;2023-07-13T01:13:57;3.88;;;1.90;;
51862;SDS011;37900;52.996;6.278;2023-07-13T01:16:27;1.85;;;1.65;;
51862;SDS011;37900;52.996;6.278;2023-07-13T01:18:55;2.42;;;2.00;;
51862;SDS011;37900;52.996;6.278;2023-07-13T01:21:26;2.92;;;1.67;;
51862;SDS011;37900;52.996;6.278;2023-07-13T01:23:54;2.45;;;1.58;;
51862;SDS011;37900;52.996;6.278;2023-07-13T01:26:20;3.10;;;1.65;;
51862;SDS011;37900;52.996;6.278;2023-07-13T01:28:45;2.45;;;1.70;;
51862;SDS011;37900;52.996;6.278;2023-07-13T01:31:11;3.47;;;1.60;;
51862;SDS011;37900;52.996;6.278;2023-07-13T01:33:38;2.97;;;1.48;;
51862;SDS011;37900;52.996;6.278;2023-07-13T01:36:09;2.17;;;1.60;;
51862;SDS011;37900;52.996;6.278;2023-07-13T01:38:36;2.13;;;1.80;;
51862;SDS011;37900;52.996;6.278;2023-07-13T01:41:02;2.58;;;1.45;;
51862;SDS011;37900;52.996;6.278;2023-07-13T01:43:28;1.90;;;1.48;;
51862;SDS011;37900;52.996;6.278;2023-07-13T01:45:54;2.35;;;1.60;;
51862;SDS011;37900;52.996;6.278;2023-07-13T01:48:20;1.65;;;1.52;;
51862;SDS011;37900;52.996;6.278;2023-07-13T01:50:47;2.58;;;1.50;;
51862;SDS011;37900;52.996;6.278;2023-07-13T01:53:13;2.50;;;1.58;;
51862;SDS011;37900;52.996;6.278;2023-07-13T01:55:38;2.03;;;1.52;;
51862;SDS011;37900;52.996;6.278;2023-07-13T01:58:04;3.33;;;1.90;;
51862;SDS011;37900;52.996;6.278;2023-07-13T02:00:30;3.53;;;1.60;;
51862;SDS011;37900;52.996;6.278;2023-07-13T02:02:56;1.80;;;1.50;;
51862;SDS011;37900;52.996;6.278;2023-07-13T02:05:22;2.35;;;1.70;;
51862;SDS011;37900;52.996;6.278;2023-07-13T02:07:47;3.40;;;1.63;;
51862;SDS011;37900;52.996;6.278;2023-07-13T02:10:14;2.00;;;1.23;;
51862;SDS011;37900;52.996;6.278;2023-07-13T02:12:40;2.53;;;1.60;;
51862;SDS011;37900;52.996;6.278;2023-07-13T02:15:06;3.83;;;1.75;;
51862;SDS011;37900;52.996;6.278;2023-07-13T02:17:33;2.80;;;1.47;;
51862;SDS011;37900;52.996;6.278;2023-07-13T02:19:59;2.83;;;1.65;;
51862;SDS011;37900;52.996;6.278;2023-07-13T02:22:25;2.55;;;1.50;;
51862;SDS011;37900;52.996;6.278;2023-07-13T02:24:51;2.63;;;1.33;;
51862;SDS011;37900;52.996;6.278;2023-07-13T02:27:17;2.03;;;1.60;;
51862;SDS011;37900;52.996;6.278;2023-07-13T02:29:42;2.13;;;1.33;;
51862;SDS011;37900;52.996;6.278;2023-07-13T02:32:08;2.97;;;1.60;;
51862;SDS011;37900;52.996;6.278;2023-07-13T02:34:34;2.28;;;1.40;;
51862;SDS011;37900;52.996;6.278;2023-07-13T02:37:00;3.03;;;1.40;;
51862;SDS011;37900;52.996;6.278;2023-07-13T02:39:25;1.90;;;1.60;;
51862;SDS011;37900;52.996;6.278;2023-07-13T02:41:51;2.47;;;1.60;;
51862;SDS011;37900;52.996;6.278;2023-07-13T02:44:17;2.47;;;1.60;;
51862;SDS011;37900;52.996;6.278;2023-07-13T02:46:42;2.60;;;1.17;;
51862;SDS011;37900;52.996;6.278;2023-07-13T02:49:08;1.65;;;1.52;;
51862;SDS011;37900;52.996;6.278;2023-07-13T02:51:34;2.35;;;1.27;;
51862;SDS011;37900;52.996;6.278;2023-07-13T02:54:00;2.53;;;1.63;;
51862;SDS011;37900;52.996;6.278;2023-07-13T02:56:28;2.33;;;1.55;;
51862;SDS011;37900;52.996;6.278;2023-07-13T02:58:55;2.70;;;1.52;;
51862;SDS011;37900;52.996;6.278;2023-07-13T03:01:21;2.28;;;1.45;;
51862;SDS011;37900;52.996;6.278;2023-07-13T03:03:51;2.78;;;1.70;;
51862;SDS011;37900;52.996;6.278;2023-07-13T03:06:17;1.80;;;1.50;;
51862;SDS011;37900;52.996;6.278;2023-07-13T03:08:43;3.45;;;1.50;;
51862;SDS011;37900;52.996;6.278;2023-07-13T03:11:11;2.17;;;1.27;;
51862;SDS011;37900;52.996;6.278;2023-07-13T03:13:39;1.77;;;1.42;;
51862;SDS011;37900;52.996;6.278;2023-07-13T03:16:06;1.83;;;1.38;;
51862;SDS011;37900;52.996;6.278;2023-07-13T03:18:33;2.80;;;1.60;;
51862;SDS011;37900;52.996;6.278;2023-07-13T03:21:00;2.83;;;1.42;;
51862;SDS011;37900;52.996;6.278;2023-07-13T03:23:25;2.50;;;1.58;;
51862;SDS011;37900;52.996;6.278;2023-07-13T03:26:00;1.92;;;1.40;;
51862;SDS011;37900;52.996;6.278;2023-07-13T03:28:28;1.88;;;1.30;;
51862;SDS011;37900;52.996;6.278;2023-07-13T03:31:01;1.95;;;1.38;;
51862;SDS011;37900;52.996;6.278;2023-07-13T03:33:26;1.30;;;1.20;;
51862;SDS011;37900;52.996;6.278;2023-07-13T03:35:52;2.03;;;1.40;;
51862;SDS011;37900;52.996;6.278;2023-07-13T03:38:18;3.05;;;1.67;;
51862;SDS011;37900;52.996;6.278;2023-07-13T03:40:44;1.60;;;1.30;;
51862;SDS011;37900;52.996;6.278;2023-07-13T03:43:10;2.08;;;1.42;;
51862;SDS011;37900;52.996;6.278;2023-07-13T03:45:37;1.52;;;1.25;;
51862;SDS011;37900;52.996;6.278;2023-07-13T03:50:30;2.20;;;1.50;;
51862;SDS011;37900;52.996;6.278;2023-07-13T03:52:57;2.33;;;1.35;;
51862;SDS011;37900;52.996;6.278;2023-07-13T03:55:23;1.27;;;1.15;;
51862;SDS011;37900;52.996;6.278;2023-07-13T03:57:54;3.45;;;1.38;;
51862;SDS011;37900;52.996;6.278;2023-07-13T04:00:24;1.85;;;1.15;;
51862;SDS011;37900;52.996;6.278;2023-07-13T04:02:50;2.00;;;1.35;;
51862;SDS011;37900;52.996;6.278;2023-07-13T04:05:16;2.50;;;1.50;;
51862;SDS011;37900;52.996;6.278;2023-07-13T04:07:42;3.08;;;1.40;;
51862;SDS011;37900;52.996;6.278;2023-07-13T04:10:08;1.65;;;1.20;;
51862;SDS011;37900;52.996;6.278;2023-07-13T04:12:34;2.58;;;1.20;;
51862;SDS011;37900;52.996;6.278;2023-07-13T04:15:00;2.72;;;1.40;;
51862;SDS011;37900;52.996;6.278;2023-07-13T04:17:25;2.40;;;1.63;;
51862;SDS011;37900;52.996;6.278;2023-07-13T04:19:51;2.25;;;1.40;;
51862;SDS011;37900;52.996;6.278;2023-07-13T04:22:17;2.03;;;1.40;;
51862;SDS011;37900;52.996;6.278;2023-07-13T04:24:42;1.60;;;1.20;;
51862;SDS011;37900;52.996;6.278;2023-07-13T04:27:08;2.35;;;1.60;;
51862;SDS011;37900;52.996;6.278;2023-07-13T04:29:34;2.13;;;1.40;;
51862;SDS011;37900;52.996;6.278;2023-07-13T04:32:00;1.90;;;1.42;;
51862;SDS011;37900;52.996;6.278;2023-07-13T04:34:26;1.63;;;1.40;;
51862;SDS011;37900;52.996;6.278;2023-07-13T04:36:52;1.73;;;1.30;;
51862;SDS011;37900;52.996;6.278;2023-07-13T04:39:18;1.60;;;1.30;;
51862;SDS011;37900;52.996;6.278;2023-07-13T04:41:44;1.38;;;1.23;;
51862;SDS011;37900;52.996;6.278;2023-07-13T04:44:09;1.55;;;1.10;;
51862;SDS011;37900;52.996;6.278;2023-07-13T04:46:35;2.22;;;1.20;;
51862;SDS011;37900;52.996;6.278;2023-07-13T04:49:00;2.15;;;1.50;;
51862;SDS011;37900;52.996;6.278;2023-07-13T04:51:29;1.83;;;1.38;;
51862;SDS011;37900;52.996;6.278;2023-07-13T04:53:54;1.65;;;1.40;;
51862;SDS011;37900;52.996;6.278;2023-07-13T04:56:20;2.50;;;1.50;;
51862;SDS011;37900;52.996;6.278;2023-07-13T04:58:46;2.85;;;1.50;;
51862;SDS011;37900;52.996;6.278;2023-07-13T05:01:11;1.60;;;1.30;;
51862;SDS011;37900;52.996;6.278;2023-07-13T05:03:38;2.05;;;1.13;;
51862;SDS011;37900;52.996;6.278;2023-07-13T05:06:05;2.45;;;1.45;;
51862;SDS011;37900;52.996;6.278;2023-07-13T05:08:32;1.92;;;1.38;;
51862;SDS011;37900;52.996;6.278;2023-07-13T05:11:04;2.72;;;1.33;;
51862;SDS011;37900;52.996;6.278;2023-07-13T05:13:32;2.50;;;1.40;;
51862;SDS011;37900;52.996;6.278;2023-07-13T05:16:01;2.20;;;1.50;;
51862;SDS011;37900;52.996;6.278;2023-07-13T05:18:29;2.70;;;1.30;;
51862;SDS011;37900;52.996;6.278;2023-07-13T05:21:02;2.93;;;1.47;;
51862;SDS011;37900;52.996;6.278;2023-07-13T05:23:31;1.67;;;1.23;;
51862;SDS011;37900;52.996;6.278;2023-07-13T05:25:57;1.92;;;1.40;;
51862;SDS011;37900;52.996;6.278;2023-07-13T05:28:23;1.88;;;1.15;;
51862;SDS011;37900;52.996;6.278;2023-07-13T05:30:49;2.15;;;1.60;;
51862;SDS011;37900;52.996;6.278;2023-07-13T05:33:15;3.20;;;1.42;;
51862;SDS011;37900;52.996;6.278;2023-07-13T05:35:42;1.55;;;1.27;;
51862;SDS011;37900;52.996;6.278;2023-07-13T05:38:07;1.88;;;1.33;;
51862;SDS011;37900;52.996;6.278;2023-07-13T05:40:33;2.90;;;1.73;;
51862;SDS011;37900;52.996;6.278;2023-07-13T05:42:59;2.25;;;1.50;;
51862;SDS011;37900;52.996;6.278;2023-07-13T05:45:24;2.05;;;1.33;;
51862;SDS011;37900;52.996;6.278;2023-07-13T05:47:51;1.58;;;1.30;;
51862;SDS011;37900;52.996;6.278;2023-07-13T05:50:16;2.30;;;1.40;;
51862;SDS011;37900;52.996;6.278;2023-07-13T05:52:42;2.40;;;1.75;;
51862;SDS011;37900;52.996;6.278;2023-07-13T05:55:08;1.85;;;1.63;;
51862;SDS011;37900;52.996;6.278;2023-07-13T05:57:34;1.25;;;1.15;;
51862;SDS011;37900;52.996;6.278;2023-07-13T05:59:59;1.92;;;1.08;;
51862;SDS011;37900;52.996;6.278;2023-07-13T06:02:25;1.77;;;1.30;;
51862;SDS011;37900;52.996;6.278;2023-07-13T06:04:51;2.47;;;1.67;;
51862;SDS011;37900;52.996;6.278;2023-07-13T06:07:17;1.73;;;1.30;;
51862;SDS011;37900;52.996;6.278;2023-07-13T06:09:43;1.83;;;1.25;;
51862;SDS011;37900;52.996;6.278;2023-07-13T06:12:09;1.50;;;1.13;;
51862;SDS011;37900;52.996;6.278;2023-07-13T06:14:35;1.27;;;1.17;;
51862;SDS011;37900;52.996;6.278;2023-07-13T06:17:00;2.53;;;1.63;;
51862;SDS011;37900;52.996;6.278;2023-07-13T06:19:26;1.75;;;1.38;;
51862;SDS011;37900;52.996;6.278;2023-07-13T06:21:52;2.10;;;1.30;;
51862;SDS011;37900;52.996;6.278;2023-07-13T06:24:17;2.78;;;1.48;;
51862;SDS011;37900;52.996;6.278;2023-07-13T06:26:43;1.88;;;1.67;;
51862;SDS011;37900;52.996;6.278;2023-07-13T06:29:09;2.15;;;1.65;;
51862;SDS011;37900;52.996;6.278;2023-07-13T06:31:34;2.50;;;1.50;;
51862;SDS011;37900;52.996;6.278;2023-07-13T06:34:00;1.38;;;1.20;;
51862;SDS011;37900;52.996;6.278;2023-07-13T06:36:26;1.95;;;1.50;;
51862;SDS011;37900;52.996;6.278;2023-07-13T06:38:51;4.47;;;1.50;;
51862;SDS011;37900;52.996;6.278;2023-07-13T06:41:17;2.40;;;1.25;;
51862;SDS011;37900;52.996;6.278;2023-07-13T06:43:43;1.63;;;1.40;;
51862;SDS011;37900;52.996;6.278;2023-07-13T06:46:08;1.65;;;1.50;;
51862;SDS011;37900;52.996;6.278;2023-07-13T06:48:35;5.20;;;1.65;;
51862;SDS011;37900;52.996;6.278;2023-07-13T06:51:01;1.90;;;1.20;;
51862;SDS011;37900;52.996;6.278;2023-07-13T06:53:27;2.70;;;1.70;;
51862;SDS011;37900;52.996;6.278;2023-07-13T06:55:53;2.22;;;1.35;;
51862;SDS011;37900;52.996;6.278;2023-07-13T06:58:19;3.20;;;1.75;;
51862;SDS011;37900;52.996;6.278;2023-07-13T07:00:45;2.27;;;1.50;;
51862;SDS011;37900;52.996;6.278;2023-07-13T07:03:11;2.40;;;1.40;;
51862;SDS011;37900;52.996;6.278;2023-07-13T07:05:37;3.70;;;1.90;;
51862;SDS011;37900;52.996;6.278;2023-07-13T07:08:03;3.55;;;1.75;;
51862;SDS011;37900;52.996;6.278;2023-07-13T07:10:29;3.65;;;1.50;;
51862;SDS011;37900;52.996;6.278;2023-07-13T07:12:56;1.83;;;1.27;;
51862;SDS011;37900;52.996;6.278;2023-07-13T07:15:22;3.15;;;1.70;;
51862;SDS011;37900;52.996;6.278;2023-07-13T07:17:48;2.85;;;1.50;;
51862;SDS011;37900;52.996;6.278;2023-07-13T07:20:13;4.45;;;2.53;;
51862;SDS011;37900;52.996;6.278;2023-07-13T07:22:39;4.80;;;2.17;;
51862;SDS011;37900;52.996;6.278;2023-07-13T07:25:05;3.88;;;2.00;;
51862;SDS011;37900;52.996;6.278;2023-07-13T07:27:30;5.05;;;2.15;;
51862;SDS011;37900;52.996;6.278;2023-07-13T07:29:57;10.00;;;2.42;;
51862;SDS011;37900;52.996;6.278;2023-07-13T07:32:23;6.97;;;2.15;;
51862;SDS011;37900;52.996;6.278;2023-07-13T07:34:49;5.72;;;2.15;;
51862;SDS011;37900;52.996;6.278;2023-07-13T07:37:14;4.72;;;1.77;;
51862;SDS011;37900;52.996;6.278;2023-07-13T07:39:40;4.45;;;2.08;;
51862;SDS011;37900;52.996;6.278;2023-07-13T07:42:06;5.22;;;2.03;;
51862;SDS011;37900;52.996;6.278;2023-07-13T07:44:32;4.88;;;2.00;;
51862;SDS011;37900;52.996;6.278;2023-07-13T07:46:59;4.75;;;2.58;;
51862;SDS011;37900;52.996;6.278;2023-07-13T07:49:24;5.07;;;3.08;;
51862;SDS011;37900;52.996;6.278;2023-07-13T07:51:50;6.03;;;3.00;;
51862;SDS011;37900;52.996;6.278;2023-07-13T07:54:16;9.00;;;3.38;;
51862;SDS011;37900;52.996;6.278;2023-07-13T07:56:42;5.45;;;3.05;;
51862;SDS011;37900;52.996;6.278;2023-07-13T07:59:08;4.95;;;2.60;;
51862;SDS011;37900;52.996;6.278;2023-07-13T08:01:34;3.97;;;2.25;;
51862;SDS011;37900;52.996;6.278;2023-07-13T08:04:00;5.65;;;2.22;;
51862;SDS011;37900;52.996;6.278;2023-07-13T08:06:26;3.28;;;2.22;;
51862;SDS011;37900;52.996;6.278;2023-07-13T08:08:51;4.95;;;2.13;;
51862;SDS011;37900;52.996;6.278;2023-07-13T08:11:17;4.28;;;2.88;;
51862;SDS011;37900;52.996;6.278;2023-07-13T08:13:43;5.68;;;2.47;;
51862;SDS011;37900;52.996;6.278;2023-07-13T08:16:09;5.25;;;2.40;;
51862;SDS011;37900;52.996;6.278;2023-07-13T08:18:34;3.30;;;2.25;;
51862;SDS011;37900;52.996;6.278;2023-07-13T08:21:04;5.45;;;2.30;;
51862;SDS011;37900;52.996;6.278;2023-07-13T08:23:31;3.90;;;2.47;;
51862;SDS011;37900;52.996;6.278;2023-07-13T08:25:57;4.13;;;2.25;;
51862;SDS011;37900;52.996;6.278;2023-07-13T08:28:23;5.03;;;2.38;;
51862;SDS011;37900;52.996;6.278;2023-07-13T08:30:49;3.47;;;1.90;;
51862;SDS011;37900;52.996;6.278;2023-07-13T08:33:15;3.47;;;2.22;;
51862;SDS011;37900;52.996;6.278;2023-07-13T08:35:48;2.40;;;1.83;;
51862;SDS011;37900;52.996;6.278;2023-07-13T08:38:15;4.50;;;2.20;;
51862;SDS011;37900;52.996;6.278;2023-07-13T08:40:42;5.80;;;2.25;;
51862;SDS011;37900;52.996;6.278;2023-07-13T08:43:13;5.43;;;2.53;;
51862;SDS011;37900;52.996;6.278;2023-07-13T08:45:57;4.22;;;2.08;;
51862;SDS011;37900;52.996;6.278;2023-07-13T08:48:40;4.30;;;2.20;;
51862;SDS011;37900;52.996;6.278;2023-07-13T08:53:57;2.65;;;2.15;;
51862;SDS011;37900;52.996;6.278;2023-07-13T08:56:27;4.13;;;2.10;;
51862;SDS011;37900;52.996;6.278;2023-07-13T08:58:56;4.57;;;2.67;;
51862;SDS011;37900;52.996;6.278;2023-07-13T09:01:36;4.50;;;2.22;;
51862;SDS011;37900;52.996;6.278;2023-07-13T09:04:18;3.80;;;2.40;;
51862;SDS011;37900;52.996;6.278;2023-07-13T09:09:22;3.75;;;2.33;;
51862;SDS011;37900;52.996;6.278;2023-07-13T09:12:07;4.35;;;2.10;;
51862;SDS011;37900;52.996;6.278;2023-07-13T09:14:38;3.88;;;1.98;;
51862;SDS011;37900;52.996;6.278;2023-07-13T09:17:15;2.45;;;1.73;;
51862;SDS011;37900;52.996;6.278;2023-07-13T09:19:59;3.55;;;2.00;;
51862;SDS011;37900;52.996;6.278;2023-07-13T09:22:29;2.97;;;2.10;;
51862;SDS011;37900;52.996;6.278;2023-07-13T09:27:48;3.72;;;2.20;;
51862;SDS011;37900;52.996;6.278;2023-07-13T09:30:22;4.55;;;2.35;;
51862;SDS011;37900;52.996;6.278;2023-07-13T09:32:58;2.95;;;2.22;;
51862;SDS011;37900;52.996;6.278;2023-07-13T09:35:25;2.78;;;1.60;;
51862;SDS011;37900;52.996;6.278;2023-07-13T09:37:56;3.70;;;2.10;;
51862;SDS011;37900;52.996;6.278;2023-07-13T09:43:24;2.58;;;1.65;;
51862;SDS011;37900;52.996;6.278;2023-07-13T09:45:50;6.38;;;3.20;;
51862;SDS011;37900;52.996;6.278;2023-07-13T09:48:16;3.55;;;2.40;;
51862;SDS011;37900;52.996;6.278;2023-07-13T09:50:43;2.97;;;1.90;;
51862;SDS011;37900;52.996;6.278;2023-07-13T09:53:13;3.72;;;1.80;;
51862;SDS011;37900;52.996;6.278;2023-07-13T09:55:44;2.85;;;1.70;;
51862;SDS011;37900;52.996;6.278;2023-07-13T09:58:19;2.47;;;1.60;;
51862;SDS011;37900;52.996;6.278;2023-07-13T10:00:54;3.67;;;1.67;;
51862;SDS011;37900;52.996;6.278;2023-07-13T10:03:23;10.05;;;2.30;;
51862;SDS011;37900;52.996;6.278;2023-07-13T10:06:01;4.60;;;2.40;;
51862;SDS011;37900;52.996;6.278;2023-07-13T10:08:38;5.95;;;2.88;;
51862;SDS011;37900;52.996;6.278;2023-07-13T10:11:11;4.32;;;2.22;;
51862;SDS011;37900;52.996;6.278;2023-07-13T10:13:51;3.45;;;2.20;;
51862;SDS011;37900;52.996;6.278;2023-07-13T10:16:34;5.20;;;2.70;;
51862;SDS011;37900;52.996;6.278;2023-07-13T10:19:11;4.63;;;2.50;;
51862;SDS011;37900;52.996;6.278;2023-07-13T10:21:58;6.00;;;2.47;;
51862;SDS011;37900;52.996;6.278;2023-07-13T10:24:27;4.95;;;2.60;;
51862;SDS011;37900;52.996;6.278;2023-07-13T10:29:27;4.55;;;2.17;;
51862;SDS011;37900;52.996;6.278;2023-07-13T10:31:53;5.43;;;2.47;;
51862;SDS011;37900;52.996;6.278;2023-07-13T10:34:20;4.25;;;2.42;;
51862;SDS011;37900;52.996;6.278;2023-07-13T10:36:48;2.87;;;1.90;;
51862;SDS011;37900;52.996;6.278;2023-07-13T10:41:46;4.65;;;2.08;;
51862;SDS011;37900;52.996;6.278;2023-07-13T10:44:20;3.42;;;1.98;;
51862;SDS011;37900;52.996;6.278;2023-07-13T10:46:52;4.68;;;2.40;;
51862;SDS011;37900;52.996;6.278;2023-07-13T10:49:33;5.45;;;2.40;;
51862;SDS011;37900;52.996;6.278;2023-07-13T10:52:01;2.97;;;2.15;;
51862;SDS011;37900;52.996;6.278;2023-07-13T10:54:31;5.03;;;2.10;;
51862;SDS011;37900;52.996;6.278;2023-07-13T10:57:10;4.60;;;2.20;;
51862;SDS011;37900;52.996;6.278;2023-07-13T11:02:28;2.85;;;1.85;;
51862;SDS011;37900;52.996;6.278;2023-07-13T11:04:54;4.55;;;2.20;;
51862;SDS011;37900;52.996;6.278;2023-07-13T11:07:29;4.63;;;2.08;;
51862;SDS011;37900;52.996;6.278;2023-07-13T11:10:03;4.32;;;2.20;;
51862;SDS011;37900;52.996;6.278;2023-07-13T11:12:52;3.67;;;2.00;;
51862;SDS011;37900;52.996;6.278;2023-07-13T11:15:30;3.90;;;1.92;;
51862;SDS011;37900;52.996;6.278;2023-07-13T11:18:19;4.50;;;2.00;;
51862;SDS011;37900;52.996;6.278;2023-07-13T11:20:50;3.92;;;1.83;;
51862;SDS011;37900;52.996;6.278;2023-07-13T11:25:43;5.85;;;2.40;;
51862;SDS011;37900;52.996;6.278;2023-07-13T11:30:37;7.18;;;2.20;;
51862;SDS011;37900;52.996;6.278;2023-07-13T11:38:49;3.70;;;2.05;;
51862;SDS011;37900;52.996;6.278;2023-07-13T11:41:18;3.05;;;2.10;;
51862;SDS011;37900;52.996;6.278;2023-07-13T11:43:52;4.63;;;2.10;;
51862;SDS011;37900;52.996;6.278;2023-07-13T11:46:23;3.00;;;1.58;;
51862;SDS011;37900;52.996;6.278;2023-07-13T11:48:51;2.80;;;2.17;;
51862;SDS011;37900;52.996;6.278;2023-07-13T11:51:22;4.03;;;2.20;;
51862;SDS011;37900;52.996;6.278;2023-07-13T11:53:52;3.20;;;1.75;;
51862;SDS011;37900;52.996;6.278;2023-07-13T11:56:20;4.57;;;1.80;;
51862;SDS011;37900;52.996;6.278;2023-07-13T11:58:51;1.92;;;1.63;;
51862;SDS011;37900;52.996;6.278;2023-07-13T12:01:22;2.33;;;1.70;;
51862;SDS011;37900;52.996;6.278;2023-07-13T12:03:50;4.35;;;2.03;;
51862;SDS011;37900;52.996;6.278;2023-07-13T12:06:50;2.47;;;1.85;;
51862;SDS011;37900;52.996;6.278;2023-07-13T12:09:13;3.97;;;2.03;;
51862;SDS011;37900;52.996;6.278;2023-07-13T12:11:43;3.15;;;1.70;;
51862;SDS011;37900;52.996;6.278;2023-07-13T12:14:13;3.85;;;2.03;;
51862;SDS011;37900;52.996;6.278;2023-07-13T12:16:43;3.67;;;1.70;;
51862;SDS011;37900;52.996;6.278;2023-07-13T12:21:47;3.80;;;1.65;;
51862;SDS011;37900;52.996;6.278;2023-07-13T12:24:17;2.63;;;2.00;;
51862;SDS011;37900;52.996;6.278;2023-07-13T12:26:44;2.60;;;1.80;;
51862;SDS011;37900;52.996;6.278;2023-07-13T12:29:16;2.28;;;1.67;;
51862;SDS011;37900;52.996;6.278;2023-07-13T12:31:44;4.20;;;1.73;;
51862;SDS011;37900;52.996;6.278;2023-07-13T12:34:15;3.65;;;1.73;;
51862;SDS011;37900;52.996;6.278;2023-07-13T12:39:33;3.10;;;1.73;;
51862;SDS011;37900;52.996;6.278;2023-07-13T12:42:19;2.95;;;1.73;;
51862;SDS011;37900;52.996;6.278;2023-07-13T12:47:22;2.33;;;1.48;;
51862;SDS011;37900;52.996;6.278;2023-07-13T12:49:53;4.55;;;1.98;;
51862;SDS011;37900;52.996;6.278;2023-07-13T12:52:27;3.00;;;1.40;;
51862;SDS011;37900;52.996;6.278;2023-07-13T12:54:56;3.22;;;1.83;;
51862;SDS011;37900;52.996;6.278;2023-07-13T13:00:04;1.45;;;1.35;;
51862;SDS011;37900;52.996;6.278;2023-07-13T13:02:39;2.10;;;1.50;;
51862;SDS011;37900;52.996;6.278;2023-07-13T13:05:05;3.75;;;1.70;;
51862;SDS011;37900;52.996;6.278;2023-07-13T13:07:31;4.03;;;1.60;;
51862;SDS011;37900;52.996;6.278;2023-07-13T13:09:57;2.63;;;2.08;;
51862;SDS011;37900;52.996;6.278;2023-07-13T13:12:23;3.25;;;1.60;;
51862;SDS011;37900;52.996;6.278;2023-07-13T13:14:52;3.33;;;2.00;;
51862;SDS011;37900;52.996;6.278;2023-07-13T13:17:22;3.58;;;1.88;;
51862;SDS011;37900;52.996;6.278;2023-07-13T13:19:50;2.75;;;1.50;;
51862;SDS011;37900;52.996;6.278;2023-07-13T13:22:19;3.05;;;1.83;;
51862;SDS011;37900;52.996;6.278;2023-07-13T13:24:45;5.28;;;1.58;;
51862;SDS011;37900;52.996;6.278;2023-07-13T13:27:21;2.50;;;1.90;;
51862;SDS011;37900;52.996;6.278;2023-07-13T13:29:49;4.35;;;2.28;;
51862;SDS011;37900;52.996;6.278;2023-07-13T13:32:19;2.97;;;1.38;;
51862;SDS011;37900;52.996;6.278;2023-07-13T13:34:45;2.15;;;1.75;;
51862;SDS011;37900;52.996;6.278;2023-07-13T13:37:15;2.67;;;1.48;;
51862;SDS011;37900;52.996;6.278;2023-07-13T13:39:44;3.03;;;1.60;;
51862;SDS011;37900;52.996;6.278;2023-07-13T13:42:10;2.50;;;1.50;;
51862;SDS011;37900;52.996;6.278;2023-07-13T13:44:36;3.97;;;1.80;;
51862;SDS011;37900;52.996;6.278;2023-07-13T13:47:02;3.03;;;1.98;;
51862;SDS011;37900;52.996;6.278;2023-07-13T13:49:29;2.90;;;1.80;;
51862;SDS011;37900;52.996;6.278;2023-07-13T13:51:55;4.85;;;1.73;;
51862;SDS011;37900;52.996;6.278;2023-07-13T13:54:22;2.07;;;1.50;;
51862;SDS011;37900;52.996;6.278;2023-07-13T13:56:51;4.60;;;1.92;;
51862;SDS011;37900;52.996;6.278;2023-07-13T13:59:18;2.17;;;1.38;;
51862;SDS011;37900;52.996;6.278;2023-07-13T14:01:45;2.85;;;1.60;;
51862;SDS011;37900;52.996;6.278;2023-07-13T14:04:16;2.83;;;1.80;;
51862;SDS011;37900;52.996;6.278;2023-07-13T14:06:44;4.82;;;1.75;;
51862;SDS011;37900;52.996;6.278;2023-07-13T14:09:11;2.40;;;1.73;;
51862;SDS011;37900;52.996;6.278;2023-07-13T14:11:38;3.70;;;1.80;;
51862;SDS011;37900;52.996;6.278;2023-07-13T14:14:17;4.97;;;1.80;;
51862;SDS011;37900;52.996;6.278;2023-07-13T14:16:45;2.78;;;1.70;;
51862;SDS011;37900;52.996;6.278;2023-07-13T14:19:18;2.08;;;1.80;;
51862;SDS011;37900;52.996;6.278;2023-07-13T14:21:43;2.45;;;1.60;;
51862;SDS011;37900;52.996;6.278;2023-07-13T14:24:09;1.95;;;1.30;;
51862;SDS011;37900;52.996;6.278;2023-07-13T14:26:36;2.67;;;1.63;;
51862;SDS011;37900;52.996;6.278;2023-07-13T14:29:05;1.70;;;1.50;;
51862;SDS011;37900;52.996;6.278;2023-07-13T14:31:39;1.73;;;1.20;;
51862;SDS011;37900;52.996;6.278;2023-07-13T14:34:05;3.97;;;1.45;;
51862;SDS011;37900;52.996;6.278;2023-07-13T14:36:33;2.88;;;1.30;;
51862;SDS011;37900;52.996;6.278;2023-07-13T14:41:56;2.53;;;1.77;;
51862;SDS011;37900;52.996;6.278;2023-07-13T14:44:26;4.53;;;1.50;;
51862;SDS011;37900;52.996;6.278;2023-07-13T14:46:54;2.33;;;1.52;;
51862;SDS011;37900;52.996;6.278;2023-07-13T14:52:02;2.58;;;1.60;;
51862;SDS011;37900;52.996;6.278;2023-07-13T14:54:42;2.97;;;1.45;;
51862;SDS011;37900;52.996;6.278;2023-07-13T14:57:12;2.67;;;1.60;;
51862;SDS011;37900;52.996;6.278;2023-07-13T14:59:39;5.28;;;2.05;;
51862;SDS011;37900;52.996;6.278;2023-07-13T15:02:18;2.55;;;1.40;;
51862;SDS011;37900;52.996;6.278;2023-07-13T15:07:23;1.63;;;1.30;;
51862;SDS011;37900;52.996;6.278;2023-07-13T15:09:50;5.50;;;1.48;;
51862;SDS011;37900;52.996;6.278;2023-07-13T15:12:16;2.30;;;1.50;;
51862;SDS011;37900;52.996;6.278;2023-07-13T15:14:42;2.70;;;1.50;;
51862;SDS011;37900;52.996;6.278;2023-07-13T15:17:23;2.58;;;1.60;;
51862;SDS011;37900;52.996;6.278;2023-07-13T15:19:55;2.28;;;1.70;;
51862;SDS011;37900;52.996;6.278;2023-07-13T15:22:21;3.22;;;1.45;;
51862;SDS011;37900;52.996;6.278;2023-07-13T15:24:47;3.67;;;1.63;;
51862;SDS011;37900;52.996;6.278;2023-07-13T15:27:12;4.13;;;1.48;;
51862;SDS011;37900;52.996;6.278;2023-07-13T15:29:38;2.50;;;1.40;;
51862;SDS011;37900;52.996;6.278;2023-07-13T15:32:11;3.55;;;1.63;;
51862;SDS011;37900;52.996;6.278;2023-07-13T15:34:38;2.95;;;1.70;;
51862;SDS011;37900;52.996;6.278;2023-07-13T15:37:08;6.10;;;1.58;;
51862;SDS011;37900;52.996;6.278;2023-07-13T15:39:41;3.05;;;1.40;;
51862;SDS011;37900;52.996;6.278;2023-07-13T15:42:21;5.10;;;1.80;;
51862;SDS011;37900;52.996;6.278;2023-07-13T15:44:47;5.00;;;1.75;;
51862;SDS011;37900;52.996;6.278;2023-07-13T15:47:13;3.60;;;1.80;;